Moosup, Connecticut
Current Conditions -  °F | °C
As of 7:52 PM on Monday 24 Nov 2014 (Local Time) from KIJD Reporting Station
Clear Clear  
Wind Chill: 61°   Ceiling: Unl
Heat Index: 61°   Visibility: 10mi
Dew Point: 55°   Wind: 6mph
Humidity: 81%   Direction: NA
Pressure: 29.69"   Gusts: NA
Location:  41.72°N, 71.87°W
Report Text: KIJD 250052Z AUTO VRB05KT 10SM CLR 16/13 A2969 RMK AO2 SLP052 T01610128
Loading
Personal Weather Stations






























Interactive Weather Map New forecast layout! Learn more

10-Day Weather Forecast

Advertisements
Track Severe Weather on mobile